POU weather

Dutchess County Airport
Poughkeepsie, New York, United States

Public forecast

Using degrees Fahrenheit for public forecast. Weather courtesy of forecast.io.

Current aviation weather report (METAR) for Dutchess County Airport

Retrieved 2019/11/14 03:53 UTC (1 hour ago):

KPOU 140353Z AUTO 00000KT 10SM FEW120 M07/M11 A3045 RMK AO2 SLP309 T10671111

Aviation forecast (TAF) for Dutchess County Airport

Retrieved 2019-11-14 00:33 UTC (4 hours ago):

TAF KPOU 132330Z 1400/1424 00000KT P6SM SKC FM141700 19006KT P6SM BKN110